EZY82ME EGCC-GVAC
Flight info
| Callsign | EZY82ME |
|---|---|
| Flight time | N/A |
| Altitude | 34000 |
| Route | ASMIM DCT NOKIN P17 BEPHE DCT OSSEP DCT ELNIF DCT ZESPE DCT DAWLY DCT BHD DCT SALCO DCT EBOMO DCT LOTEE DCT PINEK DCT BEXAL DCT SAMAR DCT YUSME DCT LIMAL N873 IPERA DCT DIMKI DIMKI1S |
| Aircraft | A320/M-SDE2E3FGHIRWXY/LB1 |
Departure
| Time | N/A |
|---|---|
| Airport | Manchester Airport (EGCC) |
Arrival
| Time | 2026-04-28 15:54 |
|---|---|
| Airport | Amílcar Cabral International Airport (GVAC) |
| Time | Latitude | Longitude | Altitude | Speed | Heading |
|---|---|---|---|---|---|
| 2026-04-28 14:51 | 21.45300 | -19.99987 | 34025 ft | 413 kts | 221° |
| 2026-04-28 14:51 | 21.40374 | -20.03178 | 34023 ft | 413 kts | 221° |
| 2026-04-28 14:52 | 21.35454 | -20.06372 | 34025 ft | 413 kts | 221° |
| 2026-04-28 14:52 | 21.30537 | -20.09559 | 34019 ft | 413 kts | 221° |
| 2026-04-28 14:53 | 21.25642 | -20.12723 | 34015 ft | 413 kts | 221° |
| 2026-04-28 14:53 | 21.20721 | -20.15908 | 34023 ft | 413 kts | 221° |
| 2026-04-28 14:54 | 21.15791 | -20.19097 | 34025 ft | 413 kts | 221° |
| 2026-04-28 14:54 | 21.10869 | -20.22277 | 34019 ft | 414 kts | 221° |
| 2026-04-28 14:55 | 21.05936 | -20.25458 | 34014 ft | 414 kts | 221° |
| 2026-04-28 14:55 | 21.01011 | -20.28636 | 34029 ft | 414 kts | 221° |
| 2026-04-28 14:56 | 20.96078 | -20.31815 | 34021 ft | 414 kts | 221° |
| 2026-04-28 14:56 | 20.91142 | -20.34992 | 34026 ft | 414 kts | 221° |
| 2026-04-28 14:57 | 20.86205 | -20.38165 | 34018 ft | 414 kts | 221° |
| 2026-04-28 14:57 | 20.81261 | -20.41334 | 34017 ft | 414 kts | 221° |
| 2026-04-28 14:58 | 20.76325 | -20.44500 | 34019 ft | 414 kts | 221° |
| 2026-04-28 14:58 | 20.71386 | -20.47675 | 34018 ft | 414 kts | 221° |
| 2026-04-28 14:59 | 20.66443 | -20.50847 | 34019 ft | 414 kts | 221° |
| 2026-04-28 14:59 | 20.61502 | -20.54013 | 34019 ft | 415 kts | 221° |
| 2026-04-28 15:00 | 20.56554 | -20.57183 | 34023 ft | 415 kts | 221° |
| 2026-04-28 15:00 | 20.51602 | -20.60346 | 34019 ft | 415 kts | 221° |
| 2026-04-28 15:01 | 20.46645 | -20.63513 | 34019 ft | 415 kts | 220° |
| 2026-04-28 15:01 | 20.41728 | -20.66661 | 34018 ft | 415 kts | 220° |
| 2026-04-28 15:02 | 20.36769 | -20.69827 | 34015 ft | 415 kts | 220° |
| 2026-04-28 15:02 | 20.31808 | -20.72985 | 34023 ft | 416 kts | 220° |
| 2026-04-28 15:03 | 20.26834 | -20.76142 | 34025 ft | 416 kts | 220° |
| 2026-04-28 15:03 | 20.21863 | -20.79301 | 34018 ft | 416 kts | 220° |
| 2026-04-28 15:04 | 20.16891 | -20.82454 | 34017 ft | 416 kts | 220° |
| 2026-04-28 15:04 | 20.11913 | -20.85615 | 34026 ft | 416 kts | 220° |
| 2026-04-28 15:05 | 20.06933 | -20.88770 | 34025 ft | 417 kts | 220° |
| 2026-04-28 15:05 | 20.01954 | -20.91928 | 34023 ft | 417 kts | 220° |
| 2026-04-28 15:06 | 19.96974 | -20.95078 | 34021 ft | 417 kts | 220° |
| 2026-04-28 15:06 | 19.91992 | -20.98237 | 34025 ft | 417 kts | 220° |
| 2026-04-28 15:07 | 19.87006 | -21.01391 | 34022 ft | 417 kts | 220° |
| 2026-04-28 15:07 | 19.82017 | -21.04532 | 34025 ft | 417 kts | 220° |
| 2026-04-28 15:08 | 19.77019 | -21.07676 | 34021 ft | 417 kts | 220° |
| 2026-04-28 15:08 | 19.72028 | -21.10830 | 34025 ft | 417 kts | 220° |
| 2026-04-28 15:09 | 19.67037 | -21.13986 | 34019 ft | 418 kts | 220° |
| 2026-04-28 15:09 | 19.62046 | -21.17134 | 34024 ft | 418 kts | 220° |
| 2026-04-28 15:10 | 19.57037 | -21.20271 | 34022 ft | 418 kts | 220° |
| 2026-04-28 15:10 | 19.52070 | -21.23394 | 34022 ft | 418 kts | 220° |
| 2026-04-28 15:11 | 19.47070 | -21.26539 | 34022 ft | 418 kts | 220° |
| 2026-04-28 15:11 | 19.42073 | -21.29681 | 34022 ft | 418 kts | 220° |
| 2026-04-28 15:12 | 19.37075 | -21.32825 | 34022 ft | 418 kts | 220° |
| 2026-04-28 15:12 | 19.32061 | -21.35961 | 34021 ft | 418 kts | 220° |
| 2026-04-28 15:13 | 19.27051 | -21.39096 | 34034 ft | 418 kts | 220° |
| 2026-04-28 15:13 | 19.22036 | -21.42233 | 34025 ft | 419 kts | 220° |
| 2026-04-28 15:14 | 19.17017 | -21.45371 | 34018 ft | 419 kts | 220° |
| 2026-04-28 15:14 | 19.12005 | -21.48508 | 34017 ft | 419 kts | 220° |
| 2026-04-28 15:15 | 19.06982 | -21.51647 | 34014 ft | 419 kts | 220° |
| 2026-04-28 15:15 | 19.01959 | -21.54790 | 34022 ft | 419 kts | 220° |
| 2026-04-28 15:16 | 18.96930 | -21.57929 | 34013 ft | 420 kts | 220° |
| 2026-04-28 15:16 | 18.91900 | -21.61061 | 34016 ft | 420 kts | 220° |
| 2026-04-28 15:17 | 18.86862 | -21.64195 | 34018 ft | 420 kts | 220° |
| 2026-04-28 15:17 | 18.81821 | -21.67331 | 34018 ft | 420 kts | 220° |
| 2026-04-28 15:18 | 18.76787 | -21.70471 | 34021 ft | 421 kts | 220° |
| 2026-04-28 15:18 | 18.71746 | -21.73613 | 34022 ft | 421 kts | 220° |
| 2026-04-28 15:19 | 18.66693 | -21.76743 | 34021 ft | 421 kts | 219° |
| 2026-04-28 15:19 | 18.61639 | -21.79873 | 34016 ft | 421 kts | 219° |
| 2026-04-28 15:20 | 18.56584 | -21.83007 | 34020 ft | 422 kts | 220° |
| 2026-04-28 15:20 | 18.51526 | -21.86146 | 34021 ft | 422 kts | 219° |
| 2026-04-28 15:21 | 18.46490 | -21.89264 | 34019 ft | 422 kts | 219° |
| 2026-04-28 15:21 | 18.41396 | -21.92427 | 34018 ft | 423 kts | 220° |
| 2026-04-28 15:22 | 18.36357 | -21.95548 | 34018 ft | 423 kts | 219° |
| 2026-04-28 15:22 | 18.31271 | -21.98682 | 34020 ft | 424 kts | 219° |
| 2026-04-28 15:23 | 18.26189 | -22.01818 | 34020 ft | 424 kts | 219° |
| 2026-04-28 15:23 | 18.21101 | -22.04963 | 34015 ft | 424 kts | 219° |
| 2026-04-28 15:24 | 18.16005 | -22.08108 | 34023 ft | 425 kts | 219° |
| 2026-04-28 15:24 | 18.10907 | -22.11256 | 34023 ft | 425 kts | 219° |
| 2026-04-28 15:25 | 18.05810 | -22.14403 | 34026 ft | 425 kts | 219° |
| 2026-04-28 15:25 | 18.00697 | -22.17546 | 34023 ft | 426 kts | 219° |
| 2026-04-28 15:26 | 17.95582 | -22.20687 | 33698 ft | 426 kts | 219° |
| 2026-04-28 15:26 | 17.93029 | -22.22258 | 33163 ft | 423 kts | 219° |
| 2026-04-28 15:26 | 17.90495 | -22.23818 | 32650 ft | 420 kts | 219° |
| 2026-04-28 15:26 | 17.88797 | -22.24863 | 32308 ft | 418 kts | 219° |
| 2026-04-28 15:27 | 17.86296 | -22.26400 | 31831 ft | 415 kts | 218° |
| 2026-04-28 15:27 | 17.83838 | -22.27907 | 31342 ft | 413 kts | 218° |
| 2026-04-28 15:27 | 17.81332 | -22.29443 | 30857 ft | 411 kts | 218° |
| 2026-04-28 15:27 | 17.78907 | -22.30932 | 30396 ft | 408 kts | 218° |
| 2026-04-28 15:28 | 17.76468 | -22.32429 | 29896 ft | 406 kts | 218° |
| 2026-04-28 15:28 | 17.74038 | -22.33919 | 29436 ft | 401 kts | 218° |
| 2026-04-28 15:28 | 17.71642 | -22.35385 | 29010 ft | 396 kts | 218° |
| 2026-04-28 15:28 | 17.69278 | -22.36830 | 28582 ft | 392 kts | 218° |
| 2026-04-28 15:29 | 17.66937 | -22.38264 | 28160 ft | 387 kts | 217° |
| 2026-04-28 15:29 | 17.64624 | -22.39681 | 27754 ft | 383 kts | 217° |
| 2026-04-28 15:29 | 17.62335 | -22.41084 | 27343 ft | 379 kts | 217° |
| 2026-04-28 15:29 | 17.60068 | -22.42472 | 26929 ft | 375 kts | 217° |
| 2026-04-28 15:30 | 17.57823 | -22.43846 | 26521 ft | 372 kts | 217° |
| 2026-04-28 15:30 | 17.55596 | -22.45213 | 26100 ft | 370 kts | 216° |
| 2026-04-28 15:30 | 17.53390 | -22.46567 | 25692 ft | 367 kts | 216° |
| 2026-04-28 15:30 | 17.51192 | -22.47915 | 25267 ft | 365 kts | 216° |
| 2026-04-28 15:31 | 17.49005 | -22.49256 | 24845 ft | 363 kts | 216° |
| 2026-04-28 15:31 | 17.46826 | -22.50591 | 24415 ft | 362 kts | 215° |
| 2026-04-28 15:31 | 17.44653 | -22.51922 | 23988 ft | 361 kts | 215° |
| 2026-04-28 15:31 | 17.42485 | -22.53247 | 23543 ft | 360 kts | 214° |
| 2026-04-28 15:32 | 17.40324 | -22.54566 | 23076 ft | 359 kts | 214° |
| 2026-04-28 15:32 | 17.38179 | -22.55872 | 22650 ft | 356 kts | 214° |
| 2026-04-28 15:32 | 17.36042 | -22.57174 | 22234 ft | 353 kts | 214° |
| 2026-04-28 15:32 | 17.33928 | -22.58461 | 21826 ft | 351 kts | 214° |
| 2026-04-28 15:33 | 17.31819 | -22.59747 | 21418 ft | 349 kts | 214° |
| 2026-04-28 15:33 | 17.29733 | -22.61018 | 21027 ft | 347 kts | 215° |
| 2026-04-28 15:33 | 17.27654 | -22.62284 | 20636 ft | 345 kts | 215° |
| 2026-04-28 15:33 | 17.25554 | -22.63510 | 20076 ft | 350 kts | 208° |
| 2026-04-28 15:34 | 17.23167 | -22.64256 | 19200 ft | 364 kts | 197° |
| 2026-04-28 15:34 | 17.20710 | -22.64838 | 18334 ft | 369 kts | 197° |
| 2026-04-28 15:34 | 17.18184 | -22.65419 | 17557 ft | 373 kts | 196° |
| 2026-04-28 15:34 | 17.15680 | -22.65984 | 17293 ft | 365 kts | 196° |
| 2026-04-28 15:35 | 17.13206 | -22.66543 | 16868 ft | 362 kts | 196° |
| 2026-04-28 15:35 | 17.08528 | -22.67615 | 15768 ft | 349 kts | 196° |
| 2026-04-28 15:35 | 17.06200 | -22.68154 | 15373 ft | 337 kts | 196° |
| 2026-04-28 15:36 | 17.03947 | -22.68679 | 14985 ft | 326 kts | 196° |
| 2026-04-28 15:36 | 17.01764 | -22.69191 | 14604 ft | 317 kts | 196° |
| 2026-04-28 15:36 | 16.99642 | -22.69686 | 14237 ft | 308 kts | 196° |
| 2026-04-28 15:36 | 16.97584 | -22.70167 | 13876 ft | 300 kts | 196° |
| 2026-04-28 15:37 | 16.95575 | -22.70635 | 13479 ft | 291 kts | 196° |
| 2026-04-28 15:37 | 16.93625 | -22.71085 | 13150 ft | 282 kts | 197° |
| 2026-04-28 15:37 | 16.91720 | -22.71525 | 12821 ft | 279 kts | 197° |
| 2026-04-28 15:37 | 16.89830 | -22.71963 | 12477 ft | 277 kts | 197° |
| 2026-04-28 15:38 | 16.87958 | -22.72398 | 12141 ft | 274 kts | 197° |
| 2026-04-28 15:38 | 16.86107 | -22.72829 | 11874 ft | 272 kts | 197° |
| 2026-04-28 15:38 | 16.84271 | -22.73256 | 11557 ft | 269 kts | 197° |
| 2026-04-28 15:38 | 16.82452 | -22.73679 | 11226 ft | 268 kts | 197° |
| 2026-04-28 15:39 | 16.80637 | -22.74101 | 10891 ft | 268 kts | 197° |
| 2026-04-28 15:39 | 16.78816 | -22.74523 | 10550 ft | 268 kts | 197° |
| 2026-04-28 15:39 | 16.76996 | -22.74943 | 10195 ft | 268 kts | 197° |
| 2026-04-28 15:39 | 16.75191 | -22.75360 | 9839 ft | 268 kts | 197° |
| 2026-04-28 15:40 | 16.73348 | -22.75785 | 9459 ft | 267 kts | 197° |
| 2026-04-28 15:40 | 16.71557 | -22.76198 | 9096 ft | 267 kts | 198° |
| 2026-04-28 15:40 | 16.69747 | -22.76618 | 8730 ft | 266 kts | 198° |
| 2026-04-28 15:40 | 16.67947 | -22.77037 | 8357 ft | 265 kts | 197° |
| 2026-04-28 15:41 | 16.66128 | -22.77457 | 7978 ft | 264 kts | 197° |
| 2026-04-28 15:41 | 16.64358 | -22.77863 | 7607 ft | 264 kts | 197° |
| 2026-04-28 15:41 | 16.62570 | -22.78286 | 7244 ft | 262 kts | 201° |
| 2026-04-28 15:41 | 16.60925 | -22.79034 | 6847 ft | 256 kts | 217° |
| 2026-04-28 15:42 | 16.59566 | -22.80199 | 6491 ft | 251 kts | 229° |
| 2026-04-28 15:42 | 16.58390 | -22.81534 | 6108 ft | 249 kts | 232° |
| 2026-04-28 15:42 | 16.57331 | -22.82954 | 5749 ft | 247 kts | 237° |
| 2026-04-28 15:42 | 16.56399 | -22.84444 | 5369 ft | 245 kts | 241° |
| 2026-04-28 15:43 | 16.55598 | -22.86004 | 5026 ft | 243 kts | 246° |
| 2026-04-28 15:43 | 16.54926 | -22.87620 | 4651 ft | 243 kts | 251° |
| 2026-04-28 15:43 | 16.54391 | -22.89271 | 4454 ft | 235 kts | 256° |
| 2026-04-28 15:43 | 16.54178 | -22.90903 | 4365 ft | 222 kts | 276° |
| 2026-04-28 15:44 | 16.54551 | -22.92420 | 4304 ft | 216 kts | 297° |
| 2026-04-28 15:44 | 16.55403 | -22.93649 | 4210 ft | 205 kts | 317° |
| 2026-04-28 15:44 | 16.56549 | -22.94439 | 4148 ft | 191 kts | 336° |
| 2026-04-28 15:44 | 16.57803 | -22.94775 | 3923 ft | 185 kts | 355° |
| 2026-04-28 15:45 | 16.59084 | -22.94791 | 3648 ft | 183 kts | 359° |
| 2026-04-28 15:45 | 16.60349 | -22.94801 | 3388 ft | 181 kts | 359° |
| 2026-04-28 15:45 | 16.61601 | -22.94811 | 3091 ft | 180 kts | 0° |
| 2026-04-28 15:45 | 16.62838 | -22.94820 | 2908 ft | 174 kts | 0° |
| 2026-04-28 15:46 | 16.64021 | -22.94828 | 2776 ft | 166 kts | 1° |
| 2026-04-28 15:46 | 16.65135 | -22.94836 | 2592 ft | 156 kts | 360° |
| 2026-04-28 15:46 | 16.66217 | -22.94844 | 2298 ft | 155 kts | 1° |
| 2026-04-28 15:46 | 16.67289 | -22.94851 | 1985 ft | 154 kts | 0° |
| 2026-04-28 15:47 | 16.68353 | -22.94859 | 1708 ft | 152 kts | 0° |
| 2026-04-28 15:47 | 16.69478 | -22.94879 | 2183 ft | 166 kts | 0° |
| 2026-04-28 15:47 | 16.70724 | -22.94901 | 2461 ft | 195 kts | 2° |
| 2026-04-28 15:47 | 16.72041 | -22.94491 | 2494 ft | 207 kts | 34° |
| 2026-04-28 15:48 | 16.72917 | -22.93298 | 2501 ft | 214 kts | 69° |
| 2026-04-28 15:48 | 16.72970 | -22.91745 | 2510 ft | 222 kts | 104° |
| 2026-04-28 15:48 | 16.72148 | -22.90385 | 2509 ft | 229 kts | 137° |
| 2026-04-28 15:48 | 16.70705 | -22.89672 | 2508 ft | 233 kts | 166° |
| 2026-04-28 15:49 | 16.69100 | -22.89372 | 2506 ft | 235 kts | 170° |
| 2026-04-28 15:49 | 16.67470 | -22.89137 | 2510 ft | 236 kts | 171° |
| 2026-04-28 15:49 | 16.65861 | -22.88914 | 2507 ft | 227 kts | 172° |
| 2026-04-28 15:49 | 16.64332 | -22.88759 | 2498 ft | 215 kts | 184° |
| 2026-04-28 15:50 | 16.62945 | -22.89153 | 2477 ft | 203 kts | 211° |
| 2026-04-28 15:50 | 16.61927 | -22.90115 | 2227 ft | 196 kts | 240° |
| 2026-04-28 15:50 | 16.61475 | -22.91401 | 2076 ft | 183 kts | 266° |
| 2026-04-28 15:50 | 16.61581 | -22.92673 | 1953 ft | 172 kts | 292° |
| 2026-04-28 15:51 | 16.62126 | -22.93730 | 1793 ft | 162 kts | 315° |
| 2026-04-28 15:51 | 16.62976 | -22.94460 | 1584 ft | 156 kts | 336° |
| 2026-04-28 15:51 | 16.63985 | -22.94804 | 1511 ft | 149 kts | 355° |
| 2026-04-28 15:51 | 16.64983 | -22.94832 | 1532 ft | 140 kts | 1° |
| 2026-04-28 15:52 | 16.65942 | -22.94840 | 1419 ft | 135 kts | 1° |
| 2026-04-28 15:52 | 16.66883 | -22.94848 | 1285 ft | 135 kts | 0° |
| 2026-04-28 15:52 | 16.67817 | -22.94854 | 1122 ft | 133 kts | 0° |
| 2026-04-28 15:52 | 16.68748 | -22.94857 | 950 ft | 135 kts | 2° |
| 2026-04-28 15:53 | 16.69685 | -22.94872 | 733 ft | 136 kts | 1° |
| 2026-04-28 15:53 | 16.70626 | -22.94897 | 569 ft | 136 kts | 4° |
| 2026-04-28 15:53 | 16.71560 | -22.94894 | 375 ft | 135 kts | 5° |
| 2026-04-28 15:53 | 16.72482 | -22.94893 | 189 ft | 132 kts | 5° |
| 2026-04-28 15:54 | 16.73300 | -22.94892 | 152 ft | 93 kts | 360° |
| 2026-04-28 15:54 | 16.73775 | -22.94897 | 150 ft | 49 kts | 360° |
| 2026-04-28 15:54 | 16.74073 | -22.94897 | 149 ft | 38 kts | 0° |
| 2026-04-28 15:54 | 16.74214 | -22.94886 | 149 ft | 15 kts | 32° |
| 2026-04-28 15:55 | 16.74268 | -22.94790 | 150 ft | 16 kts | 59° |
| 2026-04-28 15:55 | 16.74271 | -22.94699 | 150 ft | 13 kts | 162° |
| 2026-04-28 15:55 | 16.74187 | -22.94698 | 150 ft | 11 kts | 178° |
| 2026-04-28 15:55 | 16.74113 | -22.94696 | 150 ft | 10 kts | 178° |
| 2026-04-28 15:56 | 16.74046 | -22.94694 | 150 ft | 9 kts | 179° |
| 2026-04-28 15:56 | 16.74008 | -22.94694 | 150 ft | 2 kts | 179° |
| 2026-04-28 15:56 | 16.73900 | -22.94695 | 150 ft | 22 kts | 180° |
| 2026-04-28 15:56 | 16.73744 | -22.94696 | 150 ft | 23 kts | 180° |
| 2026-04-28 15:57 | 16.73624 | -22.94659 | 151 ft | 14 kts | 101° |
| 2026-04-28 15:57 | 16.73567 | -22.94586 | 150 ft | 10 kts | 126° |
| 2026-04-28 15:57 | 16.73558 | -22.94527 | 150 ft | 4 kts | 88° |
| 2026-04-28 15:57 | 16.73558 | -22.94513 | 150 ft | 0 kts | 89° |
| 2026-04-28 16:22 | 16.73558 | -22.94514 | 198 ft | 0 kts | 89° |
| 2026-04-28 16:47 | 16.73558 | -22.94515 | 198 ft | 0 kts | 89° |
| 2026-04-28 17:12 | 16.73558 | -22.94516 | 198 ft | 0 kts | 89° |